createdAt,value
2022-10-06T00:03:25.781Z,6.10
2022-10-06T00:08:27.959Z,3.10
2022-10-06T00:13:30.830Z,1.85
2022-10-06T00:18:32.654Z,2.95
2022-10-06T00:23:34.522Z,3.63
2022-10-06T00:28:36.574Z,6.40
2022-10-06T00:33:40.463Z,3.30
2022-10-06T00:38:42.181Z,5.70
2022-10-06T00:43:44.222Z,4.43
2022-10-06T00:48:49.029Z,4.47
2022-10-06T00:53:51.404Z,3.95
2022-10-06T00:58:53.184Z,3.97
2022-10-06T01:04:06.118Z,3.42
2022-10-06T01:09:07.929Z,6.97
2022-10-06T01:14:11.520Z,7.10
2022-10-06T01:19:31.820Z,4.30
2022-10-06T01:24:33.493Z,7.78
2022-10-06T01:29:36.052Z,2.63
2022-10-06T01:34:37.763Z,7.93
2022-10-06T01:39:39.823Z,2.83
2022-10-06T01:44:41.560Z,10.43
2022-10-06T01:49:43.205Z,6.45
2022-10-06T01:54:44.976Z,2.55
2022-10-06T01:59:47.771Z,4.00
2022-10-06T02:04:51.421Z,4.78
2022-10-06T02:09:53.258Z,5.05
2022-10-06T02:14:55.004Z,7.97
2022-10-06T02:19:56.687Z,7.60
2022-10-06T02:24:58.900Z,8.60
2022-10-06T02:30:01.704Z,9.63
2022-10-06T02:35:04.663Z,4.20
2022-10-06T02:40:07.253Z,5.18
2022-10-06T02:45:09.531Z,4.70
2022-10-06T02:50:13.004Z,2.28
2022-10-06T02:55:15.369Z,12.23
2022-10-06T03:00:17.187Z,13.32
2022-10-06T03:05:19.277Z,8.13
2022-10-06T03:10:21.011Z,7.68
2022-10-06T03:15:22.772Z,5.95
2022-10-06T03:20:25.087Z,8.50
2022-10-06T03:25:26.767Z,8.18
2022-10-06T03:30:28.870Z,7.78
2022-10-06T03:35:30.923Z,7.97
2022-10-06T03:40:33.035Z,7.63
2022-10-06T03:45:35.144Z,7.22
2022-10-06T03:50:37.321Z,51.78
2022-10-06T03:55:39.528Z,74.28
2022-10-06T04:00:41.694Z,106.43
2022-10-06T04:05:56.504Z,111.28
2022-10-06T04:11:16.366Z,129.55
2022-10-06T04:16:19.380Z,102.85
2022-10-06T04:21:21.660Z,88.10
2022-10-06T04:26:25.614Z,81.93
2022-10-06T04:31:33.160Z,63.10
2022-10-06T04:36:41.083Z,57.88
2022-10-06T04:41:47.106Z,57.33
2022-10-06T04:46:49.349Z,55.83
2022-10-06T04:51:51.378Z,60.60
2022-10-06T04:56:53.046Z,55.67
2022-10-06T05:01:55.286Z,56.17
2022-10-06T05:06:56.947Z,48.67
2022-10-06T05:11:58.680Z,39.38
2022-10-06T05:17:00.921Z,37.60
2022-10-06T05:22:02.669Z,33.58
2022-10-06T05:27:06.551Z,26.23
2022-10-06T05:32:08.731Z,32.72
2022-10-06T05:37:10.659Z,26.52
2022-10-06T05:42:13.012Z,18.13
2022-10-06T05:47:15.992Z,15.02
2022-10-06T05:52:17.623Z,11.68
2022-10-06T05:57:19.300Z,11.95
2022-10-06T06:02:21.045Z,18.25
2022-10-06T06:07:22.752Z,10.10
2022-10-06T06:12:24.658Z,10.88
2022-10-06T06:17:26.303Z,25.25
2022-10-06T06:22:28.269Z,24.52
2022-10-06T06:27:30.396Z,19.52
2022-10-06T06:32:32.079Z,13.73
2022-10-06T06:37:33.807Z,17.80
2022-10-06T06:42:35.529Z,17.65
2022-10-06T06:47:37.237Z,13.80
2022-10-06T06:52:38.957Z,10.20
2022-10-06T06:57:42.462Z,19.25
2022-10-06T07:02:44.094Z,6.43
2022-10-06T07:07:47.230Z,8.98
2022-10-06T07:12:48.903Z,20.85
2022-10-06T07:18:09.501Z,13.98
2022-10-06T07:23:37.233Z,14.77
2022-10-06T07:28:39.347Z,20.25
2022-10-06T07:33:41.421Z,20.23
2022-10-06T07:38:43.125Z,20.50
2022-10-06T07:43:45.637Z,8.07
2022-10-06T07:48:50.224Z,9.02
2022-10-06T07:53:51.889Z,9.85
2022-10-06T07:58:53.622Z,14.90
2022-10-06T08:03:55.392Z,9.02
2022-10-06T08:08:57.081Z,15.48
2022-10-06T08:13:58.975Z,13.07
2022-10-06T08:19:01.054Z,15.75
2022-10-06T08:24:02.745Z,12.95
2022-10-06T08:29:04.716Z,6.57
2022-10-06T08:34:12.028Z,10.30
2022-10-06T08:39:14.102Z,7.05
2022-10-06T08:44:26.228Z,13.65
2022-10-06T08:49:36.709Z,10.98
2022-10-06T08:54:50.246Z,9.23
2022-10-06T08:59:55.628Z,6.63
2022-10-06T09:05:01.366Z,24.05
2022-10-06T09:10:36.884Z,8.70
2022-10-06T09:16:02.152Z,10.10
2022-10-06T09:21:13.845Z,1.83
2022-10-06T09:26:28.376Z,5.47
2022-10-06T09:31:42.276Z,2.42
2022-10-06T09:37:05.375Z,1.35
2022-10-06T09:42:10.109Z,4.18
2022-10-06T09:47:28.918Z,3.25
2022-10-06T09:52:30.567Z,6.68
2022-10-06T09:57:32.499Z,7.00
2022-10-06T10:02:41.011Z,4.70
2022-10-06T10:07:43.066Z,3.95
2022-10-06T10:13:17.978Z,6.13
2022-10-06T10:18:26.781Z,5.95
2022-10-06T10:23:33.317Z,4.10
2022-10-06T10:29:27.301Z,4.43
2022-10-06T10:34:59.169Z,4.35
2022-10-06T10:40:27.671Z,8.77
2022-10-06T10:45:35.007Z,3.95
2022-10-06T10:50:42.711Z,8.35
2022-10-06T10:55:48.767Z,6.78
2022-10-06T11:00:56.636Z,3.63
2022-10-06T11:06:12.451Z,7.40
2022-10-06T11:11:24.795Z,3.53
2022-10-06T11:17:11.009Z,4.28
2022-10-06T11:22:29.418Z,3.72
2022-10-06T11:27:48.063Z,5.25
2022-10-06T11:33:17.560Z,7.35
2022-10-06T11:38:38.635Z,3.08
2022-10-06T11:44:04.458Z,4.70
2022-10-06T11:49:32.396Z,6.78
2022-10-06T11:54:49.315Z,3.42
2022-10-06T11:59:56.190Z,3.65
2022-10-06T12:05:28.473Z,7.50
2022-10-06T12:10:35.052Z,3.40
2022-10-06T12:21:44.870Z,64.60
2022-10-06T12:27:07.687Z,2.92
2022-10-06T12:32:47.101Z,5.43
2022-10-06T12:37:54.602Z,4.78
2022-10-06T12:43:10.862Z,3.17
2022-10-06T12:48:21.521Z,3.95
2022-10-06T12:53:36.817Z,6.35
2022-10-06T12:58:39.291Z,3.22
2022-10-06T13:03:46.929Z,2.55
2022-10-06T13:09:14.247Z,3.38
2022-10-06T13:14:16.430Z,7.88
2022-10-06T13:19:24.866Z,2.08
2022-10-06T13:24:27.515Z,5.32
2022-10-06T13:29:29.188Z,2.42
2022-10-06T13:34:34.821Z,3.50
2022-10-06T13:39:36.688Z,3.95
2022-10-06T13:44:39.677Z,2.85
2022-10-06T13:50:06.498Z,6.35
2022-10-06T13:55:27.628Z,5.95
2022-10-06T14:00:30.979Z,5.18
2022-10-06T14:05:42.137Z,9.25
2022-10-06T14:10:48.440Z,8.20
2022-10-06T14:16:02.527Z,4.05
2022-10-06T14:21:44.931Z,2.78
2022-10-06T14:26:49.786Z,6.83
2022-10-06T14:31:51.439Z,4.97
2022-10-06T14:36:54.994Z,3.50
2022-10-06T14:41:56.894Z,2.33
2022-10-06T14:46:58.613Z,7.57
2022-10-06T14:52:00.323Z,4.72
2022-10-06T14:57:02.143Z,3.75
2022-10-06T15:02:03.868Z,9.50
2022-10-06T15:07:24.174Z,4.45
2022-10-06T15:12:29.452Z,2.72
2022-10-06T15:17:35.237Z,6.07
2022-10-06T15:22:37.547Z,2.92
2022-10-06T15:27:57.945Z,5.30
2022-10-06T15:33:01.680Z,4.93
2022-10-06T15:38:03.343Z,4.45
2022-10-06T15:43:04.994Z,3.75
2022-10-06T15:48:09.188Z,7.82
2022-10-06T15:53:10.954Z,12.07
2022-10-06T15:58:12.671Z,4.85
2022-10-06T16:03:27.287Z,4.78
2022-10-06T16:08:29.007Z,3.78
2022-10-06T16:13:30.686Z,4.88
2022-10-06T16:18:32.481Z,4.93
2022-10-06T16:23:34.530Z,5.15
2022-10-06T16:28:36.320Z,7.78
2022-10-06T16:33:38.084Z,7.53
2022-10-06T16:38:40.214Z,7.18
2022-10-06T16:43:44.084Z,6.65
2022-10-06T16:48:47.584Z,9.45
2022-10-06T16:53:55.463Z,7.68
2022-10-06T16:59:00.134Z,6.97
2022-10-06T17:04:07.505Z,8.40
2022-10-06T17:09:15.625Z,10.75
2022-10-06T17:14:17.859Z,6.38
2022-10-06T17:19:21.842Z,5.32
2022-10-06T17:24:25.516Z,6.70
2022-10-06T17:29:27.411Z,3.90
2022-10-06T17:34:33.523Z,7.03
2022-10-06T17:39:35.438Z,10.73
2022-10-06T17:44:37.143Z,5.15
2022-10-06T17:49:40.077Z,7.22
2022-10-06T17:54:44.804Z,6.15
2022-10-06T17:59:47.787Z,11.63
2022-10-06T18:04:49.835Z,18.80
2022-10-06T18:10:11.882Z,20.83
2022-10-06T18:15:14.222Z,18.00
2022-10-06T18:26:03.839Z,12.57
2022-10-06T18:31:07.429Z,126.97
2022-10-06T18:36:12.422Z,82.93
2022-10-06T18:41:17.111Z,28.13
2022-10-06T18:46:38.387Z,20.17
2022-10-06T18:51:42.835Z,19.43
2022-10-06T18:56:51.601Z,20.20
2022-10-06T19:01:55.268Z,19.35
2022-10-06T19:06:57.099Z,14.30
2022-10-06T19:11:58.851Z,8.05
2022-10-06T19:17:12.596Z,16.75
2022-10-06T19:22:14.458Z,8.98
2022-10-06T19:27:20.609Z,9.68
2022-10-06T19:32:26.065Z,5.82
2022-10-06T19:37:29.863Z,14.48
2022-10-06T19:42:50.931Z,9.30
2022-10-06T19:47:53.535Z,11.27
2022-10-06T19:52:55.479Z,4.53
2022-10-06T19:57:57.649Z,11.90
2022-10-06T20:02:59.710Z,17.38
2022-10-06T20:08:02.024Z,15.88
2022-10-06T20:13:05.839Z,21.70
2022-10-06T20:18:08.370Z,22.60
2022-10-06T20:23:10.047Z,14.90
2022-10-06T20:28:13.004Z,12.50
2022-10-06T20:33:15.108Z,7.28
2022-10-06T20:38:37.158Z,14.63
2022-10-06T20:43:40.270Z,13.77
2022-10-06T20:48:42.348Z,15.90
2022-10-06T20:53:44.407Z,11.82
2022-10-06T20:58:46.204Z,15.40
2022-10-06T21:03:51.579Z,10.68
2022-10-06T21:08:53.255Z,12.07
2022-10-06T21:13:55.735Z,14.75
2022-10-06T21:19:10.113Z,11.25
2022-10-06T21:24:12.313Z,7.68
2022-10-06T21:29:15.381Z,12.13
2022-10-06T21:34:17.802Z,13.50
2022-10-06T21:39:19.916Z,17.27
2022-10-06T21:44:22.133Z,19.27
2022-10-06T21:49:25.342Z,17.02
2022-10-06T21:54:27.052Z,12.48
2022-10-06T21:59:29.133Z,12.80
2022-10-06T22:04:31.217Z,19.15
2022-10-06T22:09:33.029Z,10.15
2022-10-06T22:14:34.714Z,10.40
2022-10-06T22:19:36.355Z,7.03
2022-10-06T22:24:37.988Z,7.60
2022-10-06T22:29:39.670Z,9.40
2022-10-06T22:34:41.409Z,10.43
2022-10-06T22:39:43.085Z,14.13
2022-10-06T22:44:44.814Z,7.50
2022-10-06T22:49:46.572Z,17.00
2022-10-06T22:54:48.270Z,11.93
2022-10-06T22:59:49.954Z,13.15
2022-10-06T23:04:52.035Z,14.05
2022-10-06T23:09:54.191Z,10.32
2022-10-06T23:14:55.878Z,7.03
2022-10-06T23:19:57.970Z,10.20
2022-10-06T23:24:59.595Z,9.23
2022-10-06T23:30:01.936Z,8.10
2022-10-06T23:35:04.479Z,10.88
2022-10-06T23:40:06.826Z,9.52
2022-10-06T23:45:09.095Z,17.70
2022-10-06T23:50:11.248Z,4.93
2022-10-06T23:55:13.357Z,11.60
